Motherwell, United Kingdom
Current Conditions -  °F | °C
As of 9:50 AM on Thursday 29 Jan 2015 (Local Time) from EGPF Reporting Station
Scattered Clouds Scattered Clouds  
Wind Chill: 25°   Ceiling: Unl
Heat Index: 32°   Visibility: 6mi
Dew Point: 30°   Wind: 8mph
Humidity: 93%   Direction: 250°WSW
Pressure: 28.79"   Gusts: NA
Location:  55.79°N, 4°W
Report Text: EGPF 290950Z 25007KT 9999 FEW018 SCT030 M00/M01 Q0975
Loading
Personal Weather Stations






























Interactive Weather Map New forecast layout! Learn more

10-Day Weather Forecast

Advertisements
Track Severe Weather on mobile